createdAt,value
2023-05-07T00:01:33.036Z,100.00
2023-05-07T00:06:34.730Z,100.00
2023-05-07T00:11:37.319Z,100.00
2023-05-07T00:16:39.129Z,100.00
2023-05-07T00:21:40.790Z,100.00
2023-05-07T00:26:42.584Z,100.00
2023-05-07T00:31:44.245Z,100.00
2023-05-07T00:36:46.022Z,100.00
2023-05-07T00:41:48.309Z,100.00
2023-05-07T00:46:50.977Z,100.00
2023-05-07T00:51:52.800Z,100.00
2023-05-07T00:56:55.450Z,100.00
2023-05-07T01:01:57.053Z,100.00
2023-05-07T01:07:01.287Z,100.00
2023-05-07T01:12:04.399Z,100.00
2023-05-07T01:17:06.361Z,100.00
2023-05-07T01:22:16.218Z,100.00
2023-05-07T01:27:24.282Z,100.00
2023-05-07T01:32:35.169Z,100.00
2023-05-07T01:37:38.022Z,100.00
2023-05-07T01:42:40.598Z,100.00
2023-05-07T01:47:43.837Z,100.00
2023-05-07T01:52:45.548Z,100.00
2023-05-07T01:57:47.161Z,100.00
2023-05-07T02:02:49.043Z,100.00
2023-05-07T02:14:25.065Z,100.00
2023-05-07T02:19:26.690Z,100.00
2023-05-07T02:24:29.713Z,100.00
2023-05-07T02:29:32.131Z,100.00
2023-05-07T02:34:33.978Z,100.00
2023-05-07T02:39:35.955Z,100.00
2023-05-07T02:44:37.609Z,100.00
2023-05-07T02:49:39.365Z,100.00
2023-05-07T02:54:43.267Z,100.00
2023-05-07T02:59:45.016Z,100.00
2023-05-07T03:04:48.404Z,100.00
2023-05-07T03:09:50.031Z,100.00
2023-05-07T03:14:51.785Z,100.00
2023-05-07T03:19:53.464Z,100.00
2023-05-07T03:24:55.391Z,100.00
2023-05-07T03:29:57.039Z,100.00
2023-05-07T03:34:58.917Z,100.00
2023-05-07T03:40:01.061Z,100.00
2023-05-07T03:45:03.451Z,100.00
2023-05-07T03:50:06.179Z,100.00
2023-05-07T03:55:08.604Z,100.00
2023-05-07T04:00:13.547Z,100.00
2023-05-07T04:05:24.650Z,100.00
2023-05-07T04:10:31.071Z,100.00
2023-05-07T04:15:34.260Z,100.00
2023-05-07T04:20:37.682Z,100.00
2023-05-07T04:25:42.667Z,100.00
2023-05-07T04:30:56.732Z,100.00
2023-05-07T04:36:03.764Z,100.00
2023-05-07T04:41:07.896Z,100.00
2023-05-07T04:46:14.155Z,100.00
2023-05-07T04:51:17.554Z,100.00
2023-05-07T04:56:19.440Z,100.00
2023-05-07T05:01:22.735Z,100.00
2023-05-07T05:06:24.514Z,100.00
2023-05-07T05:11:27.289Z,100.00
2023-05-07T05:16:29.587Z,100.00
2023-05-07T05:21:32.941Z,100.00
2023-05-07T05:26:40.398Z,100.00
2023-05-07T05:31:43.027Z,100.00
2023-05-07T05:36:45.803Z,100.00
2023-05-07T05:41:49.043Z,99.24
2023-05-07T05:46:51.673Z,100.00
2023-05-07T05:51:53.778Z,100.00
2023-05-07T05:56:56.827Z,100.00
2023-05-07T06:01:59.904Z,100.00
2023-05-07T06:07:01.573Z,100.00
2023-05-07T06:12:03.544Z,100.00
2023-05-07T06:17:06.572Z,100.00
2023-05-07T06:22:08.496Z,100.00
2023-05-07T06:27:10.809Z,99.86
2023-05-07T06:32:14.693Z,100.00
2023-05-07T06:37:18.482Z,100.00
2023-05-07T06:42:28.296Z,100.00
2023-05-07T06:47:34.498Z,99.38
2023-05-07T06:52:36.899Z,98.22
2023-05-07T06:57:40.889Z,97.65
2023-05-07T07:02:43.087Z,96.68
2023-05-07T07:07:45.886Z,96.08
2023-05-07T07:12:47.897Z,94.77
2023-05-07T07:17:50.118Z,91.75
2023-05-07T07:22:52.083Z,92.12
2023-05-07T07:27:53.710Z,92.02
2023-05-07T07:33:01.626Z,92.43
2023-05-07T07:38:03.637Z,93.65
2023-05-07T07:43:06.015Z,94.14
2023-05-07T07:48:08.175Z,95.18
2023-05-07T07:53:12.781Z,96.92
2023-05-07T07:58:14.593Z,96.24
2023-05-07T08:03:17.871Z,94.05
2023-05-07T08:08:23.733Z,91.85
2023-05-07T08:13:26.367Z,92.01
2023-05-07T08:18:29.993Z,88.22
2023-05-07T08:23:35.573Z,88.34
2023-05-07T08:28:38.428Z,89.37
2023-05-07T08:33:40.108Z,88.68
2023-05-07T08:38:43.879Z,89.49
2023-05-07T08:43:52.065Z,89.15
2023-05-07T08:48:54.321Z,89.19
2023-05-07T08:53:56.046Z,89.40
2023-05-07T08:59:02.665Z,88.77
2023-05-07T09:04:06.785Z,85.17
2023-05-07T09:09:09.535Z,85.51
2023-05-07T09:14:11.335Z,85.83
2023-05-07T09:19:16.436Z,83.96
2023-05-07T09:24:21.026Z,83.65
2023-05-07T09:29:23.178Z,86.01
2023-05-07T09:34:25.698Z,84.42
2023-05-07T09:39:39.149Z,85.77
2023-05-07T09:44:41.501Z,82.76
2023-05-07T09:49:51.829Z,82.95
2023-05-07T09:55:00.283Z,85.37
2023-05-07T10:00:07.294Z,84.79
2023-05-07T10:05:26.230Z,84.25
2023-05-07T10:10:31.930Z,84.03
2023-05-07T10:15:34.486Z,78.89
2023-05-07T10:20:38.237Z,75.22
2023-05-07T10:25:42.618Z,74.25
2023-05-07T10:31:02.062Z,75.96
2023-05-07T10:36:10.658Z,75.09
2023-05-07T10:41:12.860Z,74.41
2023-05-07T10:46:22.098Z,79.10
2023-05-07T10:51:34.536Z,79.60
2023-05-07T10:56:44.770Z,79.09
2023-05-07T11:02:09.082Z,75.67
2023-05-07T11:07:29.205Z,76.55
2023-05-07T11:12:39.659Z,77.82
2023-05-07T11:18:00.957Z,76.83
2023-05-07T11:23:08.386Z,77.45
2023-05-07T11:28:20.582Z,78.60
2023-05-07T11:33:31.395Z,78.83
2023-05-07T11:38:38.606Z,77.15
2023-05-07T11:43:55.450Z,75.27
2023-05-07T11:48:57.733Z,73.67
2023-05-07T11:53:59.342Z,70.33
2023-05-07T11:59:01.090Z,69.10
2023-05-07T12:04:04.383Z,68.87
2023-05-07T12:09:08.494Z,70.81
2023-05-07T12:14:12.229Z,73.08
2023-05-07T12:19:16.053Z,74.06
2023-05-07T12:24:17.812Z,75.16
2023-05-07T12:29:23.800Z,73.90
2023-05-07T12:34:25.591Z,74.96
2023-05-07T12:39:27.223Z,73.27
2023-05-07T12:44:35.937Z,75.61
2023-05-07T12:49:41.185Z,76.32
2023-05-07T12:54:42.905Z,74.88
2023-05-07T12:59:44.538Z,74.34
2023-05-07T13:04:46.142Z,73.38
2023-05-07T13:09:49.232Z,67.16
2023-05-07T13:14:51.030Z,65.91
2023-05-07T13:19:52.704Z,69.81
2023-05-07T13:24:54.345Z,72.33
2023-05-07T13:29:55.980Z,74.42
2023-05-07T13:34:57.767Z,73.80
2023-05-07T13:39:59.396Z,74.64
2023-05-07T13:45:01.756Z,74.17
2023-05-07T13:50:03.446Z,74.20
2023-05-07T13:55:05.609Z,71.74
2023-05-07T14:00:07.785Z,72.49
2023-05-07T14:05:16.573Z,72.06
2023-05-07T14:10:19.728Z,74.25
2023-05-07T14:15:21.555Z,74.74
2023-05-07T14:20:23.161Z,74.72
2023-05-07T14:25:24.812Z,74.40
2023-05-07T14:30:27.222Z,73.09
2023-05-07T14:35:28.884Z,73.41
2023-05-07T14:40:30.588Z,73.77
2023-05-07T14:45:32.220Z,73.73
2023-05-07T14:50:33.856Z,73.32
2023-05-07T14:55:36.029Z,73.17
2023-05-07T15:00:37.826Z,74.70
2023-05-07T15:05:39.431Z,75.15
2023-05-07T15:10:43.881Z,74.10
2023-05-07T15:15:45.960Z,73.81
2023-05-07T15:20:47.595Z,74.87
2023-05-07T15:25:52.152Z,75.44
2023-05-07T15:30:56.223Z,75.47
2023-05-07T15:35:59.932Z,75.51
2023-05-07T15:41:01.592Z,76.86
2023-05-07T15:46:03.229Z,77.05
2023-05-07T15:51:06.413Z,77.08
2023-05-07T15:56:08.449Z,75.58
2023-05-07T16:01:10.531Z,76.29
2023-05-07T16:06:12.702Z,77.05
2023-05-07T16:11:14.385Z,77.01
2023-05-07T16:16:16.058Z,78.13
2023-05-07T16:21:17.794Z,78.58
2023-05-07T16:26:19.413Z,78.62
2023-05-07T16:31:21.030Z,78.63
2023-05-07T16:36:22.901Z,77.89
2023-05-07T16:41:24.531Z,78.59
2023-05-07T16:46:26.530Z,78.17
2023-05-07T16:51:29.370Z,79.11
2023-05-07T16:56:31.145Z,78.72
2023-05-07T17:01:32.875Z,78.61
2023-05-07T17:06:34.613Z,78.81
2023-05-07T17:11:36.300Z,79.28
2023-05-07T17:16:37.968Z,79.60
2023-05-07T17:21:39.599Z,80.33
2023-05-07T17:26:43.169Z,80.97
2023-05-07T17:31:44.919Z,80.37
2023-05-07T17:36:46.610Z,80.55
2023-05-07T17:41:48.233Z,81.54
2023-05-07T17:46:50.017Z,82.16
2023-05-07T17:51:55.273Z,82.40
2023-05-07T17:56:57.328Z,82.79
2023-05-07T18:01:58.969Z,83.00
2023-05-07T18:07:00.792Z,83.20
2023-05-07T18:12:02.439Z,83.80
2023-05-07T18:17:04.038Z,84.29
2023-05-07T18:22:05.721Z,84.74
2023-05-07T18:27:07.432Z,84.96
2023-05-07T18:32:09.169Z,85.37
2023-05-07T18:37:10.817Z,85.68
2023-05-07T18:42:13.082Z,86.26
2023-05-07T18:47:14.692Z,86.18
2023-05-07T18:52:18.025Z,86.87
2023-05-07T18:57:19.618Z,86.54
2023-05-07T19:02:21.606Z,86.60
2023-05-07T19:07:23.230Z,86.66
2023-05-07T19:12:24.894Z,86.77
2023-05-07T19:17:26.530Z,87.13
2023-05-07T19:22:28.230Z,87.35
2023-05-07T19:27:29.834Z,87.87
2023-05-07T19:32:31.525Z,88.36
2023-05-07T19:37:33.186Z,89.46
2023-05-07T19:42:35.203Z,89.92
2023-05-07T19:47:36.857Z,90.42
2023-05-07T19:52:38.451Z,91.37
2023-05-07T19:57:40.076Z,91.00
2023-05-07T20:02:41.766Z,91.49
2023-05-07T20:07:46.257Z,92.63
2023-05-07T20:12:48.092Z,92.19
2023-05-07T20:17:49.819Z,91.84
2023-05-07T20:22:51.471Z,92.10
2023-05-07T20:27:53.099Z,90.95
2023-05-07T20:32:54.735Z,91.47
2023-05-07T20:37:56.804Z,89.54
2023-05-07T20:42:58.490Z,89.40
2023-05-07T20:48:00.251Z,88.68
2023-05-07T20:53:02.087Z,88.54
2023-05-07T20:58:03.693Z,89.53
2023-05-07T21:03:05.491Z,89.98
2023-05-07T21:08:07.157Z,90.00
2023-05-07T21:13:08.756Z,90.69
2023-05-07T21:18:11.394Z,90.81
2023-05-07T21:23:13.104Z,91.60
2023-05-07T21:28:14.713Z,91.08
2023-05-07T21:33:16.417Z,91.48
2023-05-07T21:38:18.878Z,90.85
2023-05-07T21:43:20.484Z,90.78
2023-05-07T21:48:22.379Z,90.46
2023-05-07T21:53:24.072Z,90.40
2023-05-07T21:58:29.458Z,89.84
2023-05-07T22:03:31.265Z,89.75
2023-05-07T22:08:32.952Z,89.67
2023-05-07T22:13:34.545Z,88.16
2023-05-07T22:18:36.209Z,88.42
2023-05-07T22:23:37.867Z,87.13
2023-05-07T22:28:40.623Z,87.72
2023-05-07T22:33:42.318Z,88.16
2023-05-07T22:38:43.952Z,87.70
2023-05-07T22:43:45.575Z,88.02
2023-05-07T22:48:47.178Z,87.96
2023-05-07T22:53:48.855Z,89.19
2023-05-07T22:58:50.517Z,88.82
2023-05-07T23:03:52.753Z,88.91
2023-05-07T23:08:54.884Z,89.15
2023-05-07T23:13:56.679Z,90.43
2023-05-07T23:18:58.821Z,90.44
2023-05-07T23:24:00.689Z,90.57
2023-05-07T23:29:02.430Z,92.58
2023-05-07T23:34:04.100Z,93.56
2023-05-07T23:39:05.756Z,96.96
2023-05-07T23:44:07.386Z,97.33
2023-05-07T23:49:08.983Z,98.86
2023-05-07T23:54:10.613Z,100.00
2023-05-07T23:59:13.450Z,100.00
